Time;durP1;ratioP1;P1;durP2;ratioP2;P2;SDS_P1;SDS_P2;PMS_P1;PMS_P2;Temp;Humidity;BMP_temperature;BMP_pressure;BME280_temperature;BME280_humidity;BME280_pressure;Samples;Min_cycle;Max_cycle;Signal;HPM_P1;HPM_P2
2022/06/23 00:01:33;;;;;;;1.45;1.35;;;21.30;99.90;;;;;;5068081;28;20227;-62
2022/06/23 00:04:06;;;;;;;1.55;1.40;;;21.20;99.90;;;;;;5067222;28;20227;-63
2022/06/23 00:06:44;;;;;;;2.15;1.55;;;21.10;99.90;;;;;;5076581;28;20206;-63
2022/06/23 00:09:35;;;;;;;1.93;1.60;;;21.20;99.90;;;;;;5066471;28;20203;-63
2022/06/23 00:12:09;;;;;;;1.48;1.38;;;21.20;99.90;;;;;;5069679;28;20199;-62
2022/06/23 00:14:39;;;;;;;1.80;1.30;;;21.20;99.90;;;;;;5058254;28;20284;-62
2022/06/23 00:17:17;;;;;;;1.73;1.50;;;21.20;99.90;;;;;;5068718;28;20207;-62
2022/06/23 00:19:46;;;;;;;1.77;1.50;;;21.20;99.90;;;;;;5060863;28;20195;-62
2022/06/23 00:22:26;;;;;;;1.50;1.40;;;21.20;99.90;;;;;;5067372;28;20623;-62
2022/06/23 00:25:00;;;;;;;1.60;1.50;;;21.20;99.90;;;;;;5073348;28;20246;-62
2022/06/23 00:27:30;;;;;;;1.57;1.40;;;21.10;99.90;;;;;;5072928;28;20274;-63
2022/06/23 00:30:01;;;;;;;1.27;1.20;;;21.10;99.90;;;;;;5070005;28;20206;-62
2022/06/23 00:32:30;;;;;;;1.50;1.40;;;21.10;99.90;;;;;;5071391;28;20240;-61
2022/06/23 00:35:03;;;;;;;1.58;1.40;;;21.00;99.90;;;;;;5078931;28;20238;-62
2022/06/23 00:37:31;;;;;;;1.83;1.20;;;21.00;99.90;;;;;;5069796;28;20579;-63
2022/06/23 00:40:05;;;;;;;1.20;1.10;;;20.90;99.90;;;;;;5073489;28;20200;-63
2022/06/23 00:42:41;;;;;;;1.57;1.40;;;20.90;99.90;;;;;;5063366;28;20211;-62
2022/06/23 00:45:20;;;;;;;1.27;1.17;;;20.80;99.90;;;;;;5072556;28;20206;-64
2022/06/23 00:47:52;;;;;;;1.80;1.30;;;20.90;99.90;;;;;;5076261;28;20661;-62
2022/06/23 00:50:27;;;;;;;1.55;1.45;;;20.80;99.90;;;;;;5076573;28;20198;-62
2022/06/23 00:53:03;;;;;;;1.30;1.20;;;20.70;99.90;;;;;;5074480;28;20230;-62
2022/06/23 00:55:48;;;;;;;1.30;1.20;;;20.70;99.90;;;;;;5081971;28;20202;-63
2022/06/23 00:58:39;;;;;;;1.35;1.25;;;20.60;99.90;;;;;;5068311;28;21746;-63
2022/06/23 01:01:18;;;;;;;1.50;1.40;;;20.50;99.90;;;;;;5065800;28;20218;-63
2022/06/23 01:03:56;;;;;;;1.33;1.23;;;20.50;99.90;;;;;;5062153;28;20243;-62
2022/06/23 01:06:34;;;;;;;1.50;1.20;;;20.60;99.90;;;;;;5064884;28;20199;-62
2022/06/23 01:09:17;;;;;;;1.50;1.30;;;20.70;99.90;;;;;;5068012;28;20242;-62
2022/06/23 01:11:52;;;;;;;1.77;1.50;;;20.80;99.90;;;;;;5071770;28;20195;-64
2022/06/23 01:14:30;;;;;;;1.42;1.30;;;20.70;99.90;;;;;;5073425;28;20237;-62
2022/06/23 01:17:09;;;;;;;1.42;1.33;;;20.60;99.90;;;;;;5076800;28;20202;-62
2022/06/23 01:20:13;;;;;;;1.20;1.20;;;20.60;99.90;;;;;;5073830;28;20207;-63
2022/06/23 01:23:11;;;;;;;1.33;1.23;;;20.50;99.90;;;;;;5067918;28;20230;-63
2022/06/23 01:26:04;;;;;;;1.27;1.17;;;20.40;99.90;;;;;;5035394;28;20234;-63
2022/06/23 01:28:37;;;;;;;1.40;1.30;;;20.40;99.90;;;;;;5067671;28;20274;-62
2022/06/23 01:31:11;;;;;;;1.33;1.23;;;20.40;99.90;;;;;;5061368;28;20286;-64
2022/06/23 01:33:42;;;;;;;1.50;1.38;;;20.50;99.90;;;;;;5057380;28;20285;-62
2022/06/23 01:36:16;;;;;;;1.03;1.00;;;20.60;99.90;;;;;;5067858;28;20630;-63
2022/06/23 01:38:55;;;;;;;1.42;1.33;;;20.60;99.90;;;;;;5065871;28;20203;-63
2022/06/23 01:41:28;;;;;;;1.17;1.05;;;20.50;99.90;;;;;;5059253;28;20958;-63
2022/06/23 01:44:05;;;;;;;1.33;1.23;;;20.40;99.90;;;;;;5063484;28;20310;-63
2022/06/23 01:46:36;;;;;;;1.20;1.10;;;20.40;99.90;;;;;;5059652;28;20644;-62
2022/06/23 01:49:12;;;;;;;1.40;1.30;;;20.30;99.90;;;;;;5073418;28;20286;-62
2022/06/23 01:51:47;;;;;;;1.08;1.00;;;20.40;99.90;;;;;;5065521;28;20327;-63
2022/06/23 01:54:22;;;;;;;1.50;1.40;;;20.40;99.90;;;;;;5066027;28;20775;-62
2022/06/23 01:57:01;;;;;;;1.50;1.40;;;20.40;99.90;;;;;;5069145;28;20234;-62
2022/06/23 01:59:55;;;;;;;1.40;1.27;;;20.30;99.90;;;;;;5068532;28;20222;-62
2022/06/23 02:02:50;;;;;;;1.73;1.30;;;20.40;99.90;;;;;;5064452;28;20226;-62
2022/06/23 02:05:31;;;;;;;1.40;1.20;;;20.20;99.90;;;;;;5055454;28;20207;-62
2022/06/23 02:08:04;;;;;;;1.40;1.30;;;20.10;99.90;;;;;;5061492;28;20743;-61
2022/06/23 02:10:34;;;;;;;1.20;1.10;;;19.90;99.90;;;;;;5063530;28;20286;-62
2022/06/23 02:13:12;;;;;;;1.20;1.10;;;19.80;99.90;;;;;;5068107;28;20230;-62
2022/06/23 02:15:52;;;;;;;1.43;1.30;;;19.80;99.90;;;;;;5058892;28;20211;-63
2022/06/23 02:18:23;;;;;;;1.40;1.30;;;19.80;99.90;;;;;;5069763;28;20195;-64
2022/06/23 02:21:02;;;;;;;1.20;1.00;;;19.80;99.90;;;;;;5068363;28;20290;-62
2022/06/23 02:23:42;;;;;;;1.20;1.08;;;19.80;99.90;;;;;;5055895;28;20307;-62
2022/06/23 02:26:17;;;;;;;1.10;1.10;;;19.90;99.90;;;;;;5066999;28;20310;-62
2022/06/23 02:28:50;;;;;;;1.23;1.13;;;19.80;99.90;;;;;;5074831;28;20209;-64
2022/06/23 02:31:24;;;;;;;1.30;1.20;;;19.90;99.90;;;;;;5064182;28;20279;-63
2022/06/23 02:33:56;;;;;;;1.50;1.10;;;19.90;99.90;;;;;;5070779;28;20743;-62
2022/06/23 02:36:37;;;;;;;1.40;1.30;;;19.80;99.90;;;;;;5060888;28;20203;-62
2022/06/23 02:39:08;;;;;;;1.63;1.33;;;19.90;99.90;;;;;;5058275;28;20290;-63
2022/06/23 02:41:40;;;;;;;1.23;1.13;;;19.90;99.90;;;;;;5071795;28;20305;-63
2022/06/23 02:44:28;;;;;;;1.30;1.20;;;20.00;99.90;;;;;;5071321;28;20580;-62
2022/06/23 02:47:13;;;;;;;1.20;1.10;;;20.00;99.90;;;;;;5070533;28;20297;-62
2022/06/23 02:50:00;;;;;;;1.47;1.37;;;20.00;99.90;;;;;;5063407;28;20203;-63
2022/06/23 02:53:06;;;;;;;1.03;1.03;;;20.00;99.90;;;;;;5069530;28;20195;-64
2022/06/23 02:55:45;;;;;;;1.03;1.03;;;20.00;99.90;;;;;;5067785;28;20290;-62
2022/06/23 02:58:18;;;;;;;1.03;1.03;;;19.90;99.90;;;;;;5058137;28;20203;-62
2022/06/23 03:00:50;;;;;;;1.30;1.20;;;19.90;99.90;;;;;;5067412;28;20222;-62
2022/06/23 03:03:23;;;;;;;1.13;1.10;;;19.90;99.90;;;;;;5069154;28;20215;-62
2022/06/23 03:05:55;;;;;;;1.20;1.10;;;20.00;99.90;;;;;;5069843;28;20200;-61
2022/06/23 03:08:30;;;;;;;1.08;1.08;;;19.80;99.90;;;;;;5062048;28;20234;-63
2022/06/23 03:11:00;;;;;;;1.10;1.10;;;19.80;99.90;;;;;;5062048;28;20256;-64
2022/06/23 03:13:43;;;;;;;1.48;1.35;;;19.70;99.90;;;;;;5073874;28;20678;-62
2022/06/23 03:16:18;;;;;;;1.37;1.23;;;19.70;99.90;;;;;;5065391;28;20287;-62
2022/06/23 03:18:57;;;;;;;1.17;1.03;;;19.70;99.90;;;;;;5061937;28;20231;-62
2022/06/23 03:21:29;;;;;;;1.50;1.40;;;19.70;99.90;;;;;;5063576;28;20303;-63
2022/06/23 03:24:03;;;;;;;1.40;1.23;;;19.80;99.90;;;;;;5066814;28;20227;-63
2022/06/23 03:26:37;;;;;;;1.30;1.20;;;19.80;99.90;;;;;;5078108;28;20685;-63
2022/06/23 03:29:10;;;;;;;1.30;1.20;;;19.80;99.90;;;;;;5064411;28;20616;-63
2022/06/23 03:31:43;;;;;;;1.90;1.17;;;19.90;99.90;;;;;;5062456;28;20287;-64
2022/06/23 03:34:21;;;;;;;1.27;1.10;;;19.90;99.90;;;;;;5064410;28;20337;-62
2022/06/23 03:36:54;;;;;;;1.30;1.17;;;19.90;99.90;;;;;;5066449;28;20685;-61
2022/06/23 03:42:18;;;;;;;1.53;1.30;;;19.80;99.90;;;;;;5070872;28;20285;-64
2022/06/23 03:44:53;;;;;;;1.10;1.10;;;19.70;99.90;;;;;;5065536;28;20230;-62
2022/06/23 03:47:26;;;;;;;1.10;1.00;;;19.80;99.90;;;;;;5059200;28;20290;-63
2022/06/23 03:50:00;;;;;;;1.50;1.40;;;19.70;99.90;;;;;;5073793;28;20294;-63
2022/06/23 03:52:36;;;;;;;1.17;1.07;;;19.70;99.90;;;;;;5065146;28;20202;-63
2022/06/23 03:55:18;;;;;;;1.03;1.00;;;19.70;99.90;;;;;;5064148;28;20277;-62
2022/06/23 03:57:53;;;;;;;1.17;1.10;;;19.80;99.90;;;;;;5067581;28;20234;-63
2022/06/23 04:00:27;;;;;;;1.20;1.10;;;19.80;99.90;;;;;;5063450;28;20207;-62
2022/06/23 04:03:04;;;;;;;1.00;1.00;;;19.80;99.90;;;;;;5067276;28;20241;-62
2022/06/23 04:06:02;;;;;;;1.33;1.23;;;19.70;99.90;;;;;;5062044;28;20286;-63
2022/06/23 04:08:31;;;;;;;1.43;1.20;;;19.60;99.90;;;;;;5066007;28;20242;-63
2022/06/23 04:11:43;;;;;;;1.23;1.20;;;19.70;99.90;;;;;;5060167;28;20282;-64
2022/06/23 04:13:48;;;;;;;0.87;0.87;;;19.60;99.90;;;;;;5066329;28;20242;-63
2022/06/23 04:16:15;;;;;;;2.57;1.23;;;19.70;99.90;;;;;;5064357;28;20727;-63
2022/06/23 04:18:45;;;;;;;1.77;1.30;;;19.70;99.90;;;;;;5069441;28;20724;-63
2022/06/23 04:21:17;;;;;;;1.27;1.13;;;19.70;99.90;;;;;;5057411;22;20232;-63
2022/06/23 04:23:49;;;;;;;1.57;1.37;;;19.80;99.90;;;;;;5015843;28;20256;-65
2022/06/23 04:26:20;;;;;;;1.23;1.20;;;19.80;99.90;;;;;;5027219;28;20200;-65
2022/06/23 04:28:49;;;;;;;1.50;1.30;;;19.90;99.90;;;;;;5033984;28;20239;-66
2022/06/23 04:31:20;;;;;;;0.97;0.97;;;19.90;99.90;;;;;;5029769;28;20221;-64
2022/06/23 04:33:48;;;;;;;1.20;1.20;;;19.90;99.90;;;;;;5034895;28;20288;-67
2022/06/23 04:36:20;;;;;;;1.30;1.20;;;19.90;99.90;;;;;;5033764;28;20211;-65
2022/06/23 04:38:52;;;;;;;1.33;1.23;;;19.90;99.90;;;;;;5028816;28;20291;-65
2022/06/23 04:41:23;;;;;;;1.20;1.10;;;20.00;99.90;;;;;;5029392;28;20228;-68
2022/06/23 04:43:53;;;;;;;1.00;1.00;;;20.00;99.90;;;;;;5032411;28;20207;-70
2022/06/23 04:46:27;;;;;;;1.30;1.20;;;19.80;99.90;;;;;;5023131;28;20280;-68
2022/06/23 04:48:57;;;;;;;1.30;1.20;;;19.60;99.90;;;;;;5024748;28;20205;-66
2022/06/23 04:51:32;;;;;;;1.37;1.27;;;19.40;99.90;;;;;;5034786;28;20311;-66
2022/06/23 04:54:04;;;;;;;1.43;1.30;;;19.40;99.90;;;;;;5028352;28;20207;-66
2022/06/23 04:56:47;;;;;;;1.20;1.10;;;19.40;99.90;;;;;;5030761;28;20313;-67
2022/06/23 04:59:31;;;;;;;2.03;1.20;;;19.40;99.90;;;;;;5030535;28;20728;-66
2022/06/23 05:02:01;;;;;;;1.23;0.97;;;19.50;99.90;;;;;;5033307;28;20319;-65
2022/06/23 05:04:33;;;;;;;1.03;1.03;;;19.60;99.90;;;;;;5030409;28;20201;-66
2022/06/23 05:07:03;;;;;;;1.00;1.00;;;19.70;99.90;;;;;;5032827;28;20209;-66
2022/06/23 05:09:34;;;;;;;1.27;1.27;;;19.70;99.90;;;;;;5040976;28;20224;-67
2022/06/23 05:12:03;;;;;;;1.17;1.17;;;19.80;99.90;;;;;;5035363;28;20640;-66
2022/06/23 05:14:36;;;;;;;1.27;1.10;;;20.00;99.90;;;;;;5033420;28;20207;-67
2022/06/23 05:17:10;;;;;;;1.40;1.30;;;20.10;99.90;;;;;;5030669;28;20378;-65
2022/06/23 05:19:40;;;;;;;1.50;1.40;;;20.20;99.90;;;;;;5030109;28;20629;-66
2022/06/23 05:22:19;;;;;;;1.30;1.20;;;20.40;99.90;;;;;;5034686;28;20221;-65
2022/06/23 05:24:48;;;;;;;1.20;1.10;;;20.50;99.90;;;;;;5031136;28;20236;-67
2022/06/23 05:27:21;;;;;;;1.30;1.20;;;20.70;99.90;;;;;;5024751;28;20200;-65
2022/06/23 05:29:56;;;;;;;1.53;1.43;;;20.80;99.90;;;;;;5029254;28;20291;-67
2022/06/23 05:32:27;;;;;;;1.98;1.17;;;20.90;99.90;;;;;;5032254;28;20307;-65
2022/06/23 05:35:02;;;;;;;2.97;1.30;;;21.10;99.90;;;;;;5028817;28;20209;-65
2022/06/23 05:37:36;;;;;;;1.37;1.13;;;21.30;99.90;;;;;;5035413;28;20200;-68
2022/06/23 05:40:25;;;;;;;1.27;1.27;;;21.50;99.90;;;;;;5032391;28;20667;-66
2022/06/23 05:42:58;;;;;;;1.25;1.23;;;21.60;99.90;;;;;;5034096;28;20366;-67
2022/06/23 05:45:27;;;;;;;1.40;1.30;;;21.70;99.90;;;;;;5034782;28;20283;-70
2022/06/23 05:47:55;;;;;;;2.00;1.50;;;21.90;99.90;;;;;;5033244;28;20296;-68
2022/06/23 05:50:27;;;;;;;1.67;1.45;;;22.00;99.90;;;;;;5045258;28;20197;-68
2022/06/23 05:53:00;;;;;;;1.40;1.30;;;22.20;99.90;;;;;;5043914;28;20220;-68
2022/06/23 05:55:34;;;;;;;1.50;1.20;;;22.50;99.90;;;;;;5036235;28;20293;-67
2022/06/23 05:58:10;;;;;;;1.30;1.20;;;22.60;99.90;;;;;;5033704;28;20277;-68
2022/06/23 06:00:43;;;;;;;1.35;1.20;;;22.80;99.90;;;;;;5033786;28;20251;-67
2022/06/23 06:03:19;;;;;;;1.47;1.37;;;23.00;99.90;;;;;;5029999;28;20255;-68
2022/06/23 06:05:48;;;;;;;1.58;1.25;;;23.20;99.90;;;;;;5033772;28;20200;-67
2022/06/23 06:08:21;;;;;;;1.35;1.25;;;23.30;99.90;;;;;;5027418;28;20247;-67
2022/06/23 06:10:49;;;;;;;1.70;1.60;;;23.40;99.90;;;;;;5030900;28;20247;-67
2022/06/23 06:13:19;;;;;;;1.17;1.08;;;23.60;99.90;;;;;;5026958;28;20235;-69
2022/06/23 06:15:51;;;;;;;1.20;1.10;;;23.70;99.90;;;;;;5032955;28;20284;-65
2022/06/23 06:18:24;;;;;;;1.85;1.27;;;23.80;99.90;;;;;;5031360;28;20296;-68
2022/06/23 06:20:53;;;;;;;4.32;1.52;;;23.80;99.90;;;;;;5029437;28;20733;-66
2022/06/23 06:23:29;;;;;;;1.40;1.30;;;24.00;99.90;;;;;;5033282;28;20215;-66
2022/06/23 06:25:57;;;;;;;1.38;1.27;;;24.00;99.90;;;;;;5023132;28;20254;-68
2022/06/23 06:28:25;;;;;;;1.42;1.30;;;24.00;99.90;;;;;;5022148;28;20219;-66
2022/06/23 06:30:58;;;;;;;1.50;1.40;;;24.10;99.90;;;;;;5025700;28;20225;-67
2022/06/23 06:33:34;;;;;;;1.30;1.15;;;24.10;99.90;;;;;;5019442;28;20226;-67
2022/06/23 06:36:01;;;;;;;1.50;1.40;;;24.10;99.90;;;;;;5020572;28;20201;-67
2022/06/23 06:38:31;;;;;;;1.30;1.20;;;24.10;99.90;;;;;;5033599;28;20280;-66
2022/06/23 06:41:00;;;;;;;1.13;1.08;;;24.20;99.90;;;;;;5031242;28;20229;-68
2022/06/23 06:43:30;;;;;;;1.17;1.07;;;24.30;99.90;;;;;;5026789;28;20236;-67
2022/06/23 06:45:58;;;;;;;1.38;1.17;;;24.50;99.90;;;;;;5030551;28;20216;-66
2022/06/23 06:48:29;;;;;;;1.95;1.38;;;24.70;99.90;;;;;;5020529;28;20201;-66
2022/06/23 06:51:00;;;;;;;1.10;1.10;;;24.80;99.90;;;;;;5021396;28;20225;-66
2022/06/23 06:53:33;;;;;;;1.45;1.35;;;24.90;99.90;;;;;;5027917;28;20199;-68
2022/06/23 06:56:07;;;;;;;1.55;1.45;;;25.00;99.90;;;;;;5026198;28;20236;-67
2022/06/23 06:58:42;;;;;;;1.30;1.20;;;25.10;99.90;;;;;;5026819;28;20204;-67
2022/06/23 07:01:14;;;;;;;1.50;1.40;;;25.20;99.90;;;;;;5031974;28;20314;-67
2022/06/23 07:03:45;;;;;;;1.55;1.45;;;25.40;99.90;;;;;;5028669;28;20856;-68
2022/06/23 07:06:17;;;;;;;1.17;1.13;;;25.50;99.90;;;;;;5028169;28;20208;-67
2022/06/23 07:08:52;;;;;;;1.30;1.20;;;25.70;99.90;;;;;;5027861;28;20228;-67
2022/06/23 07:11:22;;;;;;;1.27;1.20;;;25.90;99.90;;;;;;5028927;28;20302;-67
2022/06/23 07:13:57;;;;;;;1.00;1.00;;;26.00;99.90;;;;;;5023985;28;20259;-67
2022/06/23 07:16:29;;;;;;;1.10;1.10;;;26.00;99.90;;;;;;5022974;28;20200;-67
2022/06/23 07:19:02;;;;;;;0.90;0.90;;;26.00;99.90;;;;;;5025532;28;20215;-68
2022/06/23 07:21:37;;;;;;;1.27;1.20;;;26.20;99.90;;;;;;5031156;28;20230;-68
2022/06/23 07:24:13;;;;;;;1.25;1.20;;;26.30;99.90;;;;;;5027694;28;20258;-67
2022/06/23 07:26:45;;;;;;;1.42;1.33;;;26.20;99.90;;;;;;5031249;28;20236;-68
2022/06/23 07:29:30;;;;;;;1.50;1.40;;;26.00;99.90;;;;;;5031747;28;20212;-67
2022/06/23 07:32:08;;;;;;;1.20;1.10;;;26.10;99.90;;;;;;5029346;28;20304;-66
2022/06/23 07:34:39;;;;;;;1.27;1.17;;;26.30;99.90;;;;;;5033236;28;20204;-70
2022/06/23 07:37:15;;;;;;;1.25;1.17;;;26.20;99.90;;;;;;5034861;28;20239;-67
2022/06/23 07:39:43;;;;;;;1.10;1.10;;;26.20;99.90;;;;;;5032629;28;20227;-67
2022/06/23 07:42:18;;;;;;;2.03;1.60;;;26.00;99.90;;;;;;5038604;28;20311;-66
2022/06/23 07:44:50;;;;;;;1.33;1.20;;;26.10;99.90;;;;;;5039466;28;20230;-67
2022/06/23 07:47:18;;;;;;;1.30;1.20;;;26.20;99.90;;;;;;5038529;28;20284;-68
2022/06/23 07:49:45;;;;;;;1.77;1.42;;;26.20;99.90;;;;;;5039869;28;20217;-67
2022/06/23 07:52:16;;;;;;;1.48;1.33;;;26.20;99.90;;;;;;5041105;28;20228;-68
2022/06/23 07:54:46;;;;;;;1.65;1.35;;;26.40;99.90;;;;;;5035200;28;20233;-67
2022/06/23 07:57:13;;;;;;;1.50;1.40;;;26.50;99.90;;;;;;5029248;28;20197;-69
2022/06/23 07:59:46;;;;;;;1.50;1.40;;;26.60;99.90;;;;;;5026683;28;20655;-68
2022/06/23 08:02:19;;;;;;;1.30;1.20;;;26.60;99.90;;;;;;5027051;28;20227;-67
2022/06/23 08:04:55;;;;;;;1.38;1.30;;;26.50;99.90;;;;;;5024357;28;20284;-68
2022/06/23 08:07:22;;;;;;;1.60;1.42;;;26.50;99.90;;;;;;5022434;28;20236;-68
2022/06/23 08:09:54;;;;;;;1.35;1.25;;;26.60;99.90;;;;;;5024842;28;20217;-67
2022/06/23 08:18:06;;;;;;;1.50;1.40;;;26.70;99.90;;;;;;5029517;28;20320;-69
2022/06/23 08:20:38;;;;;;;1.55;1.45;;;26.60;99.90;;;;;;5023904;28;20312;-68
2022/06/23 08:23:08;;;;;;;2.05;1.40;;;26.60;99.90;;;;;;5025109;28;20298;-66
2022/06/23 08:25:36;;;;;;;1.70;1.60;;;26.80;99.90;;;;;;5029374;28;20193;-67
2022/06/23 08:28:06;;;;;;;1.60;1.50;;;26.90;99.90;;;;;;5034143;28;20584;-69
2022/06/23 08:30:38;;;;;;;1.70;1.60;;;27.00;99.90;;;;;;5030279;28;20310;-69
2022/06/23 08:33:06;;;;;;;1.60;1.50;;;27.20;99.90;;;;;;5031441;28;20232;-67
2022/06/23 08:35:39;;;;;;;1.95;1.48;;;27.40;99.90;;;;;;5031417;28;20327;-67
2022/06/23 08:38:09;;;;;;;1.83;1.73;;;27.40;99.90;;;;;;5026943;28;20205;-67
2022/06/23 08:41:00;;;;;;;2.88;1.83;;;27.50;99.90;;;;;;5022251;28;20217;-69
2022/06/23 08:43:35;;;;;;;1.77;1.60;;;27.50;99.90;;;;;;5049014;28;20208;-71
2022/06/23 08:46:08;;;;;;;2.35;1.73;;;27.50;99.90;;;;;;5049702;28;20200;-69
2022/06/23 08:48:42;;;;;;;2.38;1.63;;;27.40;99.90;;;;;;5046987;28;20265;-69
2022/06/23 08:51:17;;;;;;;3.22;1.60;;;27.50;99.90;;;;;;5038803;28;20287;-70
2022/06/23 08:53:57;;;;;;;2.47;2.13;;;27.60;99.90;;;;;;5044116;28;20232;-67
2022/06/23 08:56:31;;;;;;;2.67;1.70;;;27.60;99.90;;;;;;5020641;28;20204;-69
2022/06/23 08:59:04;;;;;;;2.78;1.70;;;27.50;99.90;;;;;;5016747;28;20258;-68
2022/06/23 09:01:33;;;;;;;2.20;1.88;;;27.60;99.90;;;;;;5021098;28;20388;-68
2022/06/23 09:04:10;;;;;;;2.28;2.08;;;27.70;99.90;;;;;;5025612;28;20258;-69
2022/06/23 09:06:42;;;;;;;2.05;1.80;;;27.80;99.90;;;;;;5032385;28;20291;-70
2022/06/23 09:09:22;;;;;;;3.15;2.05;;;27.70;99.90;;;;;;5043133;28;20205;-67
2022/06/23 09:12:01;;;;;;;2.72;2.10;;;27.80;99.90;;;;;;5021323;28;20283;-69
2022/06/23 09:14:56;;;;;;;2.13;1.80;;;28.00;99.90;;;;;;5024756;28;20304;-68
2022/06/23 09:17:53;;;;;;;2.28;1.92;;;28.20;99.90;;;;;;5023778;28;20200;-69
2022/06/23 09:20:35;;;;;;;1.90;1.70;;;28.20;99.90;;;;;;4999205;28;20247;-68
2022/06/23 09:23:23;;;;;;;1.98;1.70;;;28.00;99.90;;;;;;5026373;28;20219;-68
2022/06/23 09:25:55;;;;;;;2.20;2.00;;;27.90;99.90;;;;;;5030750;28;20232;-68
2022/06/23 09:28:37;;;;;;;3.30;2.20;;;28.20;99.90;;;;;;5032893;28;20208;-66
2022/06/23 09:31:19;;;;;;;2.05;1.80;;;28.10;99.90;;;;;;5031581;28;20319;-69
2022/06/23 09:33:58;;;;;;;1.95;1.83;;;28.20;99.90;;;;;;5029024;28;20203;-67
2022/06/23 09:36:55;;;;;;;2.33;1.80;;;28.40;99.90;;;;;;5023766;28;20289;-67
2022/06/23 09:39:53;;;;;;;2.13;1.92;;;28.50;99.90;;;;;;5028075;28;20213;-68
2022/06/23 09:42:35;;;;;;;1.83;1.60;;;28.30;99.90;;;;;;5025717;28;20266;-67
2022/06/23 09:45:22;;;;;;;1.85;1.70;;;28.40;99.90;;;;;;5039993;28;20264;-69
2022/06/23 09:48:20;;;;;;;2.13;1.90;;;28.60;99.90;;;;;;5039117;28;20305;-69
2022/06/23 09:51:02;;;;;;;2.20;1.75;;;28.80;99.90;;;;;;5011800;28;20312;-68
2022/06/23 09:54:02;;;;;;;2.60;2.00;;;29.00;99.90;;;;;;5026011;28;20280;-68
2022/06/23 09:56:51;;;;;;;2.08;1.70;;;28.90;99.90;;;;;;5020268;28;20296;-67
2022/06/23 10:00:01;;;;;;;2.40;1.88;;;28.90;99.90;;;;;;5019283;28;20241;-69
2022/06/23 10:02:46;;;;;;;3.28;2.33;;;28.90;99.90;;;;;;4964789;28;20226;-68
2022/06/23 10:05:28;;;;;;;2.00;1.80;;;29.00;99.90;;;;;;5027451;28;20220;-67
2022/06/23 10:08:14;;;;;;;2.20;1.63;;;29.20;99.90;;;;;;5021761;28;20209;-68
2022/06/23 10:10:55;;;;;;;1.85;1.75;;;29.00;99.90;;;;;;5018995;28;20256;-67
2022/06/23 10:13:45;;;;;;;2.40;2.20;;;29.20;99.90;;;;;;5019770;28;20678;-68
2022/06/23 10:16:32;;;;;;;2.00;1.65;;;29.50;99.90;;;;;;5025411;28;20296;-67
2022/06/23 10:19:13;;;;;;;1.85;1.60;;;29.50;99.90;;;;;;5026614;28;20300;-68
2022/06/23 10:21:51;;;;;;;4.43;1.77;;;29.60;99.90;;;;;;5018205;28;20296;-69
2022/06/23 10:24:38;;;;;;;1.70;1.60;;;29.70;99.90;;;;;;5026442;28;20307;-68
2022/06/23 10:27:22;;;;;;;1.67;1.58;;;29.90;99.90;;;;;;5022488;28;20870;-67
2022/06/23 10:30:05;;;;;;;1.55;1.40;;;29.60;99.90;;;;;;5022840;28;20206;-67
2022/06/23 10:32:58;;;;;;;1.67;1.58;;;29.70;99.90;;;;;;5028125;28;20563;-67
2022/06/23 10:35:34;;;;;;;1.90;1.80;;;29.80;99.90;;;;;;5024407;28;20193;-70
2022/06/23 10:38:25;;;;;;;1.73;1.63;;;30.10;99.90;;;;;;5032140;28;20212;-68
2022/06/23 10:41:19;;;;;;;1.67;1.58;;;30.20;99.90;;;;;;5101266;22;20227;-64
2022/06/23 10:44:17;;;;;;;1.55;1.45;;;30.00;99.90;;;;;;5090954;28;20316;-64
2022/06/23 10:46:50;;;;;;;1.92;1.58;;;29.90;99.90;;;;;;5084157;28;20583;-65
2022/06/23 10:49:51;;;;;;;1.60;1.50;;;30.00;99.90;;;;;;5085858;28;20505;-67
2022/06/23 10:52:58;;;;;;;2.30;1.52;;;29.90;99.90;;;;;;5082677;28;20738;-66
2022/06/23 10:55:38;;;;;;;1.65;1.55;;;29.80;99.90;;;;;;5084815;28;20199;-64
2022/06/23 10:58:43;;;;;;;1.98;1.77;;;29.80;99.90;;;;;;5084787;28;20424;-65
2022/06/23 11:01:26;;;;;;;2.38;1.65;;;29.80;99.90;;;;;;5089950;28;20205;-64
2022/06/23 11:04:16;;;;;;;1.90;1.80;;;30.00;99.90;;;;;;5086415;28;20684;-64
2022/06/23 11:07:17;;;;;;;2.88;1.38;;;30.00;99.90;;;;;;5091597;28;20290;-64
2022/06/23 11:10:12;;;;;;;1.40;1.30;;;30.00;99.90;;;;;;5084554;28;20309;-65
2022/06/23 11:12:53;;;;;;;1.60;1.50;;;30.00;99.90;;;;;;5091510;28;20209;-65
2022/06/23 11:15:28;;;;;;;1.65;1.40;;;30.00;99.90;;;;;;5091735;28;20310;-64
2022/06/23 11:18:15;;;;;;;1.33;1.30;;;30.00;99.90;;;;;;5089942;28;20198;-66
2022/06/23 11:20:54;;;;;;;1.42;1.33;;;30.10;99.90;;;;;;5088724;28;20250;-65
2022/06/23 11:23:28;;;;;;;2.38;1.50;;;30.30;99.90;;;;;;5083266;28;20243;-65
2022/06/23 11:26:08;;;;;;;2.15;1.50;;;30.20;99.90;;;;;;5078448;28;20202;-65
2022/06/23 11:28:48;;;;;;;2.05;1.52;;;30.40;99.90;;;;;;5080898;28;20201;-66
2022/06/23 11:31:31;;;;;;;1.60;1.50;;;30.30;99.90;;;;;;5077571;28;20205;-65
2022/06/23 11:34:18;;;;;;;1.73;1.63;;;30.50;99.90;;;;;;5078278;28;20289;-64
2022/06/23 11:36:59;;;;;;;1.60;1.50;;;30.50;99.90;;;;;;5081719;28;20571;-65
2022/06/23 11:39:56;;;;;;;1.65;1.48;;;30.40;99.90;;;;;;5080606;28;20306;-64
2022/06/23 11:42:54;;;;;;;1.45;1.35;;;30.50;99.90;;;;;;5089138;28;20218;-65
2022/06/23 11:45:34;;;;;;;1.60;1.50;;;30.50;99.90;;;;;;5082623;28;20220;-64
2022/06/23 11:48:20;;;;;;;1.45;1.30;;;30.20;99.90;;;;;;5080053;28;20629;-64
2022/06/23 11:50:56;;;;;;;1.40;1.30;;;30.30;99.90;;;;;;5085116;28;20317;-64
2022/06/23 11:53:52;;;;;;;2.22;1.75;;;30.40;99.90;;;;;;5083779;28;20199;-64
2022/06/23 11:56:32;;;;;;;1.40;1.30;;;30.50;99.90;;;;;;5077596;28;20195;-65
2022/06/23 11:59:22;;;;;;;1.60;1.50;;;30.70;99.90;;;;;;5085985;28;20309;-65
2022/06/23 12:01:49;;;;;;;1.58;1.48;;;30.80;99.90;;;;;;5080641;28;20199;-65
2022/06/23 12:04:45;;;;;;;1.65;1.55;;;30.80;99.90;;;;;;5080728;28;20710;-66
2022/06/23 12:07:34;;;;;;;1.50;1.40;;;30.80;99.90;;;;;;5051814;28;20632;-66
2022/06/23 12:10:13;;;;;;;1.40;1.30;;;30.60;99.90;;;;;;5078397;28;20214;-66
2022/06/23 12:12:43;;;;;;;1.80;1.70;;;30.70;99.90;;;;;;5079703;28;20282;-66
2022/06/23 12:15:15;;;;;;;3.35;1.58;;;30.80;99.90;;;;;;5079066;28;20249;-64
2022/06/23 12:17:45;;;;;;;1.67;1.33;;;30.60;99.90;;;;;;5077706;28;20203;-64
2022/06/23 12:20:18;;;;;;;1.55;1.45;;;30.50;99.90;;;;;;5078598;28;20700;-66
2022/06/23 12:22:51;;;;;;;1.52;1.40;;;30.30;99.90;;;;;;5093681;28;20199;-64
2022/06/23 12:25:24;;;;;;;1.70;1.60;;;30.10;99.90;;;;;;5099067;28;20389;-64
2022/06/23 12:28:00;;;;;;;1.75;1.55;;;30.10;99.90;;;;;;5083904;28;20241;-66
2022/06/23 12:30:35;;;;;;;1.60;1.50;;;30.30;99.90;;;;;;5087873;28;20729;-66
2022/06/23 12:33:10;;;;;;;1.80;1.70;;;30.40;99.90;;;;;;5087346;28;20193;-66
2022/06/23 12:35:44;;;;;;;1.38;1.27;;;30.60;99.90;;;;;;5089882;28;20202;-66
2022/06/23 12:38:15;;;;;;;1.48;1.38;;;30.80;99.90;;;;;;5085348;28;20240;-66
2022/06/23 12:40:46;;;;;;;1.52;1.40;;;31.00;99.90;;;;;;5081694;28;20297;-66
2022/06/23 12:43:19;;;;;;;1.73;1.42;;;31.40;99.90;;;;;;5092895;28;20206;-66
2022/06/23 12:46:03;;;;;;;1.65;1.50;;;31.30;99.90;;;;;;5092888;28;20309;-66
2022/06/23 12:49:02;;;;;;;2.45;1.50;;;31.20;99.90;;;;;;5087272;28;20198;-64
2022/06/23 12:51:42;;;;;;;2.15;1.50;;;31.20;99.90;;;;;;5086692;28;20201;-65
2022/06/23 12:54:41;;;;;;;1.50;1.40;;;31.20;99.90;;;;;;5093265;28;20202;-65
2022/06/23 12:57:20;;;;;;;2.13;1.50;;;31.40;99.90;;;;;;5092271;28;20716;-66
2022/06/23 12:59:57;;;;;;;1.67;1.52;;;31.40;99.90;;;;;;5092849;28;20289;-65
2022/06/23 13:02:33;;;;;;;1.50;1.40;;;31.30;99.90;;;;;;5086012;28;20202;-66
2022/06/23 13:05:13;;;;;;;1.58;1.40;;;31.30;99.90;;;;;;5090052;28;20210;-66
2022/06/23 13:07:45;;;;;;;1.40;1.30;;;31.20;99.90;;;;;;5091734;28;20207;-66
2022/06/23 13:10:17;;;;;;;1.20;1.20;;;31.30;99.90;;;;;;5089561;28;20214;-66
2022/06/23 13:12:51;;;;;;;2.10;1.67;;;31.20;99.90;;;;;;5092792;28;20206;-66
2022/06/23 13:15:28;;;;;;;2.13;1.60;;;31.30;99.90;;;;;;5084247;28;20297;-67
2022/06/23 13:18:02;;;;;;;1.58;1.35;;;31.20;99.90;;;;;;5091772;28;20206;-65
2022/06/23 13:20:36;;;;;;;1.50;1.40;;;31.30;99.90;;;;;;5092552;28;20297;-65
2022/06/23 13:23:08;;;;;;;1.58;1.48;;;31.40;99.90;;;;;;5092960;28;20289;-65
2022/06/23 13:25:43;;;;;;;3.38;1.30;;;31.60;99.90;;;;;;5092992;28;20297;-65
2022/06/23 13:28:26;;;;;;;1.77;1.30;;;31.80;99.90;;;;;;5092294;28;20703;-65
2022/06/23 13:30:56;;;;;;;1.45;1.35;;;31.90;99.90;;;;;;5092933;28;20301;-65
2022/06/23 13:33:33;;;;;;;1.50;1.40;;;31.70;99.90;;;;;;5092507;28;20224;-65
2022/06/23 13:36:05;;;;;;;2.20;1.52;;;31.50;99.90;;;;;;5091205;28;20203;-65
2022/06/23 13:38:47;;;;;;;2.55;1.80;;;31.60;99.90;;;;;;5088133;28;20282;-65
2022/06/23 13:41:20;;;;;;;1.40;1.30;;;31.50;99.90;;;;;;5075417;28;20630;-66
2022/06/23 13:43:52;;;;;;;3.33;1.67;;;31.50;99.90;;;;;;5074842;28;20206;-65
2022/06/23 13:46:26;;;;;;;2.17;1.40;;;31.50;99.90;;;;;;5082581;28;20215;-64
2022/06/23 13:48:58;;;;;;;1.90;1.55;;;31.30;99.90;;;;;;5078088;28;20202;-65